KCEY

Kyle-Oakley Field Airport

Murray, Kentucky, USA
METAR KCEY 271155Z AUTO 18005KT 10SM CLR 22/22 A2991 RMK AO1
Observed Flight Rules
May-27 @ 11:55 UTC (10 minutes ago) Visual Flight Rules
Wind Visibility Clouds
180° at 5 knots 10 miles
  • Clear skies
Temperatures Readings
Current 22°C / 72°F
Dewpoint 22°C / 72°F
Humidity 100%
Altimeter 29.91" Hg
Pressure 1013 hPa
Elevation 176
METAR KCEY 271155Z AUTO 18005KT 10SM CLR 22/22 A2991 RMK AO1
Observed Flight Rules
May-27 @ 11:55 UTC
(10 minutes ago)
VFR
Wind Visibility
180° at 5 knots 10 miles
Clouds
  • Clear skies
Temperature Dewpoint
22°C / 72°F 22°C / 72°F
Humidity Altimeter Pressure
100% 29.91" Hg 1013 hPa